ハリファックス の空港の天気 - METARとTAF

ハリファックス国際空港 ( CYHZ / YHZ ) - カナダ ノバスコシア州ハリファックス
飛行場実況気象(Metar)
観測時間01/22 03:00 AST (01/22 07:00 UTC)
風向・風速南東 3m/s
視程10km以上
天気現象
全天の4割程度の雲 雲底高度 3960m
気温-13℃
湿度78%
気圧1029.9hPa
METARCYHZ 220700Z 14006KT 15SM SCT130 M13/M16 A3037 RMK AC4 SLP299
過去の天気等 Google飛行場航空写真 Wunderground天気予報

過去48時間のMETAR

飛行場予報(TAF)
発表時間: 1/22 01:38 AST (1/22 05:38 UTC)
予報対象時間: 22日2時 AST ~ 23日2時 AST
風向・風速南南東 3m/s
視程10km以上
少しの雲 雲底高度 2440m
全天の8割程度の雲 雲底高度 4270m
22日5時 AST から
風向・風速不定 2m/s
視程10km以上
少しの雲 雲底高度 2440m
22日8時 AST から
風向・風速不定 2m/s
視程10km以上
全天の8割程度の雲 雲底高度 2130m
22日12時 AST ~ 22日14時 AST に徐々に
風向・風速南 3m/s
22日19時 AST から
風向・風速南 3m/s
視程10km以上
全天の4割程度の雲 雲底高度 760m
23日1時 AST から
風向・風速南南西 4m/s
視程10km以上
全天の8割程度の雲 雲底高度 610m
TAF CYHZ 220538Z 2206/2306 16005KT P6SM FEW080 BKN140
FM220900 VRB03KT P6SM FEW080
FM221200 VRB03KT P6SM BKN070
BECMG 2216/2218 18006KT
FM222300 19005KT P6SM SCT025
FM230500 21008KT P6SM BKN020 RMK NXT FCST BY 220900Z